createdAt,value
2022-09-24T00:01:38.757Z,53.84
2022-09-24T00:04:09.664Z,53.86
2022-09-24T00:06:44.420Z,53.91
2022-09-24T00:09:14.510Z,53.73
2022-09-24T00:11:43.988Z,53.73
2022-09-24T00:14:11.342Z,54.05
2022-09-24T00:16:40.515Z,53.65
2022-09-24T00:19:07.652Z,53.69
2022-09-24T00:21:37.294Z,53.75
2022-09-24T00:24:33.840Z,53.67
2022-09-24T00:27:01.033Z,53.84
2022-09-24T00:29:27.986Z,53.89
2022-09-24T00:31:55.106Z,53.79
2022-09-24T00:34:22.042Z,53.95
2022-09-24T00:36:48.923Z,53.99
2022-09-24T00:39:16.692Z,53.92
2022-09-24T00:41:47.844Z,53.94
2022-09-24T00:44:45.849Z,53.73
2022-09-24T00:47:27.833Z,53.85
2022-09-24T00:50:18.357Z,53.79
2022-09-24T00:53:07.565Z,54.03
2022-09-24T00:55:36.852Z,53.77
2022-09-24T00:58:07.298Z,53.77
2022-09-24T01:00:37.094Z,53.69
2022-09-24T01:03:11.455Z,53.79
2022-09-24T01:05:39.230Z,53.47
2022-09-24T01:08:14.581Z,53.65
2022-09-24T01:11:18.300Z,53.51
2022-09-24T01:14:36.652Z,53.52
2022-09-24T01:17:14.359Z,53.74
2022-09-24T01:20:17.808Z,53.59
2022-09-24T01:23:21.259Z,53.58
2022-09-24T01:26:33.509Z,53.69
2022-09-24T01:29:25.157Z,53.63
2022-09-24T01:32:07.389Z,53.79
2022-09-24T01:35:00.386Z,53.85
2022-09-24T01:37:31.830Z,53.86
2022-09-24T01:40:00.238Z,53.83
2022-09-24T01:42:30.332Z,53.77
2022-09-24T01:44:58.242Z,53.96
2022-09-24T01:47:39.812Z,54.03
2022-09-24T01:50:17.186Z,53.74
2022-09-24T01:53:11.411Z,54.20
2022-09-24T01:55:48.938Z,54.17
2022-09-24T01:58:29.773Z,54.25
2022-09-24T02:01:08.197Z,54.17
2022-09-24T02:03:43.555Z,54.45
2022-09-24T02:06:25.393Z,54.41
2022-09-24T02:08:52.281Z,54.51
2022-09-24T02:11:23.245Z,54.40
2022-09-24T02:14:13.662Z,54.32
2022-09-24T02:16:46.838Z,54.41
2022-09-24T02:19:23.627Z,54.44
2022-09-24T02:21:52.079Z,54.36
2022-09-24T02:24:33.603Z,54.49
2022-09-24T02:27:00.796Z,54.39
2022-09-24T02:29:27.717Z,54.38
2022-09-24T02:31:56.965Z,54.29
2022-09-24T02:34:32.989Z,54.37
2022-09-24T02:37:06.754Z,54.47
2022-09-24T02:39:33.960Z,54.55
2022-09-24T02:42:03.813Z,54.76
2022-09-24T02:44:31.167Z,54.48
2022-09-24T02:46:58.810Z,54.78
2022-09-24T02:49:25.851Z,54.56
2022-09-24T02:51:52.733Z,54.57
2022-09-24T02:54:19.599Z,54.73
2022-09-24T02:56:46.493Z,54.92
2022-09-24T02:59:13.608Z,54.95
2022-09-24T03:01:40.886Z,54.82
2022-09-24T03:04:08.217Z,54.75
2022-09-24T03:06:35.165Z,54.71
2022-09-24T03:09:03.411Z,54.88
2022-09-24T03:11:32.006Z,54.73
2022-09-24T03:13:59.465Z,54.89
2022-09-24T03:16:27.203Z,54.95
2022-09-24T03:18:54.143Z,55.13
2022-09-24T03:21:22.311Z,55.12
2022-09-24T03:23:49.521Z,55.15
2022-09-24T03:26:17.806Z,55.27
2022-09-24T03:28:45.116Z,55.44
2022-09-24T03:31:12.804Z,55.46
2022-09-24T03:33:43.449Z,55.47
2022-09-24T03:36:25.806Z,55.54
2022-09-24T03:38:56.276Z,55.44
2022-09-24T03:41:25.420Z,55.59
2022-09-24T03:43:52.405Z,55.49
2022-09-24T03:46:19.538Z,55.63
2022-09-24T03:48:47.486Z,55.67
2022-09-24T03:51:19.143Z,56.00
2022-09-24T03:53:47.524Z,55.82
2022-09-24T03:56:14.827Z,56.05
2022-09-24T03:58:47.379Z,56.04
2022-09-24T04:01:21.753Z,56.00
2022-09-24T04:03:50.497Z,55.98
2022-09-24T04:06:22.015Z,56.14
2022-09-24T04:08:51.854Z,56.04
2022-09-24T04:11:18.710Z,56.11
2022-09-24T04:13:45.567Z,56.09
2022-09-24T04:16:12.521Z,56.09
2022-09-24T04:18:39.701Z,56.00
2022-09-24T04:21:07.148Z,56.03
2022-09-24T04:23:34.224Z,55.83
2022-09-24T04:26:02.241Z,55.91
2022-09-24T04:28:30.289Z,55.87
2022-09-24T04:30:58.180Z,55.63
2022-09-24T04:33:25.662Z,55.55
2022-09-24T04:35:52.546Z,55.53
2022-09-24T04:38:21.244Z,55.47
2022-09-24T04:40:48.796Z,55.57
2022-09-24T04:43:15.850Z,55.41
2022-09-24T04:45:45.788Z,55.42
2022-09-24T04:48:13.281Z,55.30
2022-09-24T04:50:45.540Z,55.24
2022-09-24T04:53:13.186Z,55.19
2022-09-24T04:55:41.525Z,55.18
2022-09-24T04:58:08.551Z,55.22
2022-09-24T05:00:35.415Z,55.23
2022-09-24T05:03:03.688Z,55.38
2022-09-24T05:05:32.764Z,55.50
2022-09-24T05:08:01.392Z,55.47
2022-09-24T05:10:31.426Z,55.52
2022-09-24T05:12:58.371Z,55.60
2022-09-24T05:15:25.253Z,55.53
2022-09-24T05:17:52.151Z,55.44
2022-09-24T05:20:19.024Z,55.44
2022-09-24T05:22:49.441Z,55.46
2022-09-24T05:25:18.973Z,55.51
2022-09-24T05:27:48.475Z,55.50
2022-09-24T05:30:17.091Z,55.65
2022-09-24T05:32:44.185Z,55.97
2022-09-24T05:35:11.129Z,56.21
2022-09-24T05:37:39.120Z,55.97
2022-09-24T05:40:26.048Z,56.00
2022-09-24T05:43:00.050Z,56.10
2022-09-24T05:45:26.907Z,55.94
2022-09-24T05:47:53.812Z,55.98
2022-09-24T05:50:21.383Z,56.23
2022-09-24T05:52:48.377Z,56.08
2022-09-24T05:55:15.406Z,56.08
2022-09-24T05:57:42.287Z,56.10
2022-09-24T06:00:09.877Z,56.11
2022-09-24T06:02:39.876Z,56.17
2022-09-24T06:05:07.452Z,56.28
2022-09-24T06:07:34.373Z,56.19
2022-09-24T06:10:01.252Z,56.22
2022-09-24T06:12:28.361Z,56.04
2022-09-24T06:14:55.241Z,55.91
2022-09-24T06:17:22.214Z,55.90
2022-09-24T06:19:49.086Z,55.93
2022-09-24T06:22:15.990Z,55.91
2022-09-24T06:24:42.856Z,55.92
2022-09-24T06:27:09.740Z,56.29
2022-09-24T06:29:36.613Z,56.07
2022-09-24T06:32:03.680Z,56.35
2022-09-24T06:34:30.639Z,56.35
2022-09-24T06:36:57.529Z,56.27
2022-09-24T06:39:27.284Z,56.17
2022-09-24T06:41:56.640Z,56.03
2022-09-24T06:44:24.102Z,55.86
2022-09-24T06:46:51.552Z,55.86
2022-09-24T06:49:18.467Z,55.71
2022-09-24T06:51:45.995Z,55.63
2022-09-24T06:54:12.937Z,55.80
2022-09-24T06:56:40.358Z,55.34
2022-09-24T06:59:09.114Z,55.46
2022-09-24T07:01:36.186Z,54.93
2022-09-24T07:04:03.137Z,55.39
2022-09-24T07:06:49.985Z,54.59
2022-09-24T07:09:16.879Z,54.65
2022-09-24T07:11:46.051Z,54.48
2022-09-24T07:14:13.718Z,54.25
2022-09-24T07:16:40.601Z,54.16
2022-09-24T07:19:07.597Z,54.33
2022-09-24T07:21:35.339Z,54.65
2022-09-24T07:24:02.374Z,54.06
2022-09-24T07:26:29.943Z,54.13
2022-09-24T07:28:56.834Z,54.21
2022-09-24T07:31:26.962Z,53.67
2022-09-24T07:33:53.909Z,53.79
2022-09-24T07:36:20.775Z,53.96
2022-09-24T07:38:47.735Z,54.21
2022-09-24T07:41:14.788Z,54.31
2022-09-24T07:43:42.136Z,54.57
2022-09-24T07:46:09.268Z,54.24
2022-09-24T07:48:36.303Z,54.23
2022-09-24T07:51:03.201Z,53.70
2022-09-24T07:53:30.085Z,53.62
2022-09-24T07:55:59.650Z,53.91
2022-09-24T07:58:26.586Z,53.74
2022-09-24T08:00:53.478Z,53.42
2022-09-24T08:03:20.428Z,53.63
2022-09-24T08:05:47.593Z,53.79
2022-09-24T08:08:14.962Z,53.44
2022-09-24T08:10:42.985Z,53.61
2022-09-24T08:13:09.869Z,53.14
2022-09-24T08:15:36.827Z,53.10
2022-09-24T08:18:04.994Z,53.30
2022-09-24T08:20:37.184Z,52.85
2022-09-24T08:23:07.537Z,53.28
2022-09-24T08:25:34.403Z,53.15
2022-09-24T08:28:03.389Z,52.93
2022-09-24T08:30:30.997Z,52.94
2022-09-24T08:32:58.712Z,52.78
2022-09-24T08:35:25.629Z,53.66
2022-09-24T08:37:55.568Z,53.55
2022-09-24T08:40:30.180Z,53.69
2022-09-24T08:43:36.669Z,53.51
2022-09-24T08:46:35.202Z,53.44
2022-09-24T08:49:05.031Z,53.06
2022-09-24T08:51:41.328Z,52.97
2022-09-24T08:54:13.449Z,53.39
2022-09-24T08:56:45.689Z,52.93
2022-09-24T08:59:30.321Z,53.04
2022-09-24T09:02:35.251Z,52.44
2022-09-24T09:05:29.815Z,52.34
2022-09-24T09:08:27.387Z,51.69
2022-09-24T09:11:03.056Z,52.16
2022-09-24T09:13:44.300Z,52.05
2022-09-24T09:16:29.854Z,51.28
2022-09-24T09:19:06.515Z,51.30
2022-09-24T09:21:49.240Z,51.39
2022-09-24T09:24:27.361Z,51.28
2022-09-24T09:26:56.703Z,51.56
2022-09-24T09:29:25.978Z,51.28
2022-09-24T09:32:10.262Z,51.68
2022-09-24T09:34:53.351Z,51.46
2022-09-24T09:37:40.557Z,51.05
2022-09-24T09:40:32.466Z,50.86
2022-09-24T09:43:09.157Z,50.63
2022-09-24T09:46:12.595Z,50.87
2022-09-24T09:48:52.197Z,50.73
2022-09-24T09:51:23.158Z,50.86
2022-09-24T09:54:02.217Z,50.70
2022-09-24T09:56:34.295Z,50.67
2022-09-24T09:59:27.154Z,50.01
2022-09-24T10:01:56.706Z,50.28
2022-09-24T10:04:39.913Z,50.15
2022-09-24T10:07:16.083Z,50.05
2022-09-24T10:09:44.746Z,50.04
2022-09-24T10:12:22.781Z,49.69
2022-09-24T10:15:12.229Z,49.06
2022-09-24T10:17:39.732Z,49.37
2022-09-24T10:20:30.026Z,48.73
2022-09-24T10:23:02.310Z,48.82
2022-09-24T10:25:31.367Z,48.50
2022-09-24T10:28:26.378Z,48.20
2022-09-24T10:30:59.227Z,47.72
2022-09-24T10:33:26.702Z,47.38
2022-09-24T10:36:07.645Z,47.16
2022-09-24T10:38:34.811Z,47.00
2022-09-24T10:41:02.011Z,47.06
2022-09-24T10:43:28.986Z,47.29
2022-09-24T10:46:40.955Z,46.98
2022-09-24T10:49:22.552Z,47.02
2022-09-24T10:52:42.390Z,46.70
2022-09-24T10:55:30.836Z,46.77
2022-09-24T10:58:31.766Z,46.64
2022-09-24T11:01:27.318Z,46.41
2022-09-24T11:04:10.194Z,46.96
2022-09-24T11:07:14.865Z,46.81
2022-09-24T11:10:01.318Z,47.15
2022-09-24T11:13:23.281Z,46.90
2022-09-24T11:16:55.378Z,46.17
2022-09-24T11:20:17.383Z,46.16
2022-09-24T11:23:17.259Z,46.18
2022-09-24T11:25:59.193Z,46.36
2022-09-24T11:29:15.910Z,46.00
2022-09-24T11:32:20.799Z,46.11
2022-09-24T11:35:18.599Z,46.28
2022-09-24T11:38:18.091Z,46.10
2022-09-24T11:41:16.948Z,46.17
2022-09-24T11:44:30.825Z,46.25
2022-09-24T11:47:26.133Z,46.41
2022-09-24T11:50:38.129Z,46.83
2022-09-24T11:53:32.425Z,46.57
2022-09-24T11:56:13.577Z,46.77
2022-09-24T11:58:51.584Z,46.64
2022-09-24T12:01:25.271Z,46.89
2022-09-24T12:04:16.572Z,46.60
2022-09-24T12:06:54.199Z,46.53
2022-09-24T12:09:40.628Z,46.39
2022-09-24T12:12:15.384Z,46.21
2022-09-24T12:14:56.265Z,46.34
2022-09-24T12:17:39.636Z,46.50
2022-09-24T12:20:24.973Z,46.28
2022-09-24T12:23:08.068Z,46.17
2022-09-24T12:25:45.039Z,46.38
2022-09-24T12:28:36.013Z,46.85
2022-09-24T12:31:31.446Z,46.61
2022-09-24T12:34:16.715Z,46.75
2022-09-24T12:37:06.300Z,46.69
2022-09-24T12:39:48.092Z,46.66
2022-09-24T12:42:17.320Z,46.51
2022-09-24T12:44:51.510Z,46.62
2022-09-24T12:47:23.219Z,46.50
2022-09-24T12:49:56.530Z,46.07
2022-09-24T12:52:41.699Z,45.35
2022-09-24T12:55:25.597Z,45.37
2022-09-24T12:57:59.505Z,45.46
2022-09-24T13:00:32.446Z,45.48
2022-09-24T13:03:01.107Z,45.53
2022-09-24T13:05:42.101Z,45.57
2022-09-24T13:08:11.544Z,46.01
2022-09-24T13:10:38.489Z,45.87
2022-09-24T13:13:29.025Z,45.67
2022-09-24T13:16:17.496Z,45.86
2022-09-24T13:18:57.912Z,46.07
2022-09-24T13:21:28.131Z,45.93
2022-09-24T13:23:56.166Z,46.00
2022-09-24T13:26:30.651Z,45.99
2022-09-24T13:29:06.762Z,46.01
2022-09-24T13:31:52.243Z,44.74
2022-09-24T13:34:27.055Z,44.52
2022-09-24T13:37:11.677Z,44.38
2022-09-24T13:39:51.813Z,44.80
2022-09-24T13:42:46.122Z,44.85
2022-09-24T13:45:20.753Z,44.48
2022-09-24T13:48:04.249Z,44.24
2022-09-24T13:50:34.631Z,44.07
2022-09-24T13:53:07.610Z,43.33
2022-09-24T13:55:50.228Z,43.47
2022-09-24T13:58:39.504Z,42.99
2022-09-24T14:01:20.691Z,43.20
2022-09-24T14:04:02.838Z,42.82
2022-09-24T14:06:38.824Z,42.83
2022-09-24T14:09:35.361Z,43.11
2022-09-24T14:12:22.561Z,42.87
2022-09-24T14:14:58.080Z,42.97
2022-09-24T14:17:25.706Z,43.25
2022-09-24T14:19:57.187Z,43.11
2022-09-24T14:22:31.853Z,43.13
2022-09-24T14:25:25.655Z,43.16
2022-09-24T14:27:52.585Z,43.33
2022-09-24T14:30:25.718Z,43.48
2022-09-24T14:33:16.182Z,43.53
2022-09-24T14:35:48.581Z,44.03
2022-09-24T14:38:29.643Z,43.41
2022-09-24T14:41:04.409Z,43.35
2022-09-24T14:43:44.758Z,42.80
2022-09-24T14:46:27.737Z,42.81
2022-09-24T14:49:22.344Z,43.00
2022-09-24T14:52:01.493Z,43.24
2022-09-24T14:54:38.125Z,43.09
2022-09-24T14:57:17.267Z,43.27
2022-09-24T14:59:44.740Z,43.51
2022-09-24T15:02:37.122Z,43.73
2022-09-24T15:05:08.054Z,44.05
2022-09-24T15:07:36.148Z,43.83
2022-09-24T15:10:06.215Z,44.23
2022-09-24T15:12:36.688Z,44.07
2022-09-24T15:15:18.301Z,44.25
2022-09-24T15:17:47.323Z,44.21
2022-09-24T15:20:14.588Z,44.45
2022-09-24T15:22:41.502Z,44.59
2022-09-24T15:25:08.963Z,44.37
2022-09-24T15:27:42.151Z,44.51
2022-09-24T15:30:19.824Z,44.47
2022-09-24T15:32:49.866Z,44.52
2022-09-24T15:35:17.060Z,44.73
2022-09-24T15:37:44.873Z,44.83
2022-09-24T15:40:25.313Z,44.85
2022-09-24T15:42:52.581Z,45.05
2022-09-24T15:45:24.610Z,45.09
2022-09-24T15:47:53.305Z,45.25
2022-09-24T15:50:22.890Z,45.13
2022-09-24T15:52:57.749Z,45.25
2022-09-24T15:55:24.651Z,45.28
2022-09-24T15:57:51.539Z,45.75
2022-09-24T16:00:21.759Z,45.99
2022-09-24T16:02:54.061Z,45.98
2022-09-24T16:05:21.761Z,45.78
2022-09-24T16:07:49.152Z,46.32
2022-09-24T16:10:16.660Z,46.07
2022-09-24T16:12:43.962Z,46.71
2022-09-24T16:15:15.036Z,46.47
2022-09-24T16:17:43.324Z,46.86
2022-09-24T16:20:10.430Z,46.73
2022-09-24T16:22:37.394Z,46.59
2022-09-24T16:25:04.838Z,46.23
2022-09-24T16:27:31.734Z,46.34
2022-09-24T16:29:58.639Z,46.24
2022-09-24T16:32:25.686Z,46.31
2022-09-24T16:34:54.806Z,46.29
2022-09-24T16:37:21.843Z,46.04
2022-09-24T16:39:48.931Z,46.40
2022-09-24T16:42:16.194Z,46.04
2022-09-24T16:44:43.072Z,46.16
2022-09-24T16:47:10.250Z,46.27
2022-09-24T16:49:37.120Z,46.21
2022-09-24T16:52:04.370Z,46.49
2022-09-24T16:54:32.652Z,46.27
2022-09-24T16:57:01.738Z,46.63
2022-09-24T16:59:28.615Z,46.72
2022-09-24T17:01:55.588Z,46.61
2022-09-24T17:04:22.708Z,46.96
2022-09-24T17:06:49.693Z,47.03
2022-09-24T17:09:35.366Z,47.10
2022-09-24T17:12:02.245Z,47.12
2022-09-24T17:14:29.184Z,47.45
2022-09-24T17:16:56.081Z,47.14
2022-09-24T17:19:22.957Z,47.50
2022-09-24T17:21:54.156Z,48.13
2022-09-24T17:24:22.102Z,47.97
2022-09-24T17:26:49.395Z,48.12
2022-09-24T17:29:20.442Z,48.40
2022-09-24T17:31:47.423Z,48.25
2022-09-24T17:34:15.198Z,48.21
2022-09-24T17:36:42.902Z,48.56
2022-09-24T17:39:12.836Z,48.76
2022-09-24T17:41:39.755Z,49.13
2022-09-24T17:44:07.194Z,48.70
2022-09-24T17:46:35.922Z,49.02
2022-09-24T17:49:03.272Z,49.29
2022-09-24T17:51:38.706Z,49.46
2022-09-24T17:54:10.679Z,49.51
2022-09-24T17:56:38.965Z,49.82
2022-09-24T17:59:08.799Z,50.09
2022-09-24T18:01:37.598Z,49.90
2022-09-24T18:04:07.133Z,50.05
2022-09-24T18:06:37.510Z,50.48
2022-09-24T18:09:05.333Z,50.16
2022-09-24T18:11:52.794Z,50.42
2022-09-24T18:14:22.578Z,50.73
2022-09-24T18:16:50.263Z,50.82
2022-09-24T18:19:17.683Z,50.79
2022-09-24T18:21:46.202Z,51.32
2022-09-24T18:24:14.358Z,51.35
2022-09-24T18:26:41.330Z,51.04
2022-09-24T18:29:15.631Z,51.36
2022-09-24T18:31:43.047Z,51.13
2022-09-24T18:34:14.634Z,51.38
2022-09-24T18:36:43.505Z,51.48
2022-09-24T18:39:13.373Z,51.94
2022-09-24T18:41:41.820Z,51.75
2022-09-24T18:44:10.387Z,51.56
2022-09-24T18:46:37.492Z,51.61
2022-09-24T18:49:06.266Z,51.64
2022-09-24T18:51:36.326Z,52.07
2022-09-24T18:54:10.881Z,52.38
2022-09-24T18:56:37.845Z,52.54
2022-09-24T18:59:12.645Z,52.39
2022-09-24T19:01:40.443Z,52.43
2022-09-24T19:04:10.651Z,52.58
2022-09-24T19:06:41.155Z,52.73
2022-09-24T19:09:09.284Z,52.52
2022-09-24T19:11:36.964Z,52.40
2022-09-24T19:14:04.346Z,53.10
2022-09-24T19:16:31.762Z,52.69
2022-09-24T19:19:00.809Z,52.70
2022-09-24T19:21:27.761Z,52.78
2022-09-24T19:23:57.467Z,53.09
2022-09-24T19:26:28.745Z,53.08
2022-09-24T19:28:55.699Z,53.47
2022-09-24T19:31:36.430Z,53.88
2022-09-24T19:34:05.890Z,53.58
2022-09-24T19:36:42.841Z,53.45
2022-09-24T19:39:16.430Z,53.46
2022-09-24T19:41:45.018Z,53.85
2022-09-24T19:44:12.241Z,54.10
2022-09-24T19:46:39.532Z,54.36
2022-09-24T19:49:07.027Z,53.88
2022-09-24T19:51:35.813Z,54.05
2022-09-24T19:54:06.694Z,54.07
2022-09-24T19:56:34.022Z,54.47
2022-09-24T19:59:01.716Z,54.18
2022-09-24T20:01:31.389Z,54.39
2022-09-24T20:04:02.073Z,54.14
2022-09-24T20:06:31.148Z,54.32
2022-09-24T20:08:59.289Z,54.52
2022-09-24T20:11:26.801Z,54.82
2022-09-24T20:13:56.070Z,54.88
2022-09-24T20:16:26.815Z,55.28
2022-09-24T20:18:57.428Z,55.07
2022-09-24T20:21:31.979Z,55.00
2022-09-24T20:23:59.130Z,55.23
2022-09-24T20:26:45.649Z,55.41
2022-09-24T20:29:14.132Z,55.17
2022-09-24T20:31:45.561Z,55.24
2022-09-24T20:34:12.469Z,55.48
2022-09-24T20:36:39.376Z,55.54
2022-09-24T20:39:06.234Z,55.89
2022-09-24T20:41:33.449Z,55.36
2022-09-24T20:44:00.344Z,55.61
2022-09-24T20:46:28.726Z,55.75
2022-09-24T20:48:58.398Z,55.92
2022-09-24T20:51:28.191Z,55.94
2022-09-24T20:53:55.725Z,56.72
2022-09-24T20:56:22.791Z,56.84
2022-09-24T20:58:51.825Z,57.10
2022-09-24T21:01:19.843Z,57.14
2022-09-24T21:03:49.748Z,57.41
2022-09-24T21:06:17.954Z,57.47
2022-09-24T21:08:46.672Z,57.93
2022-09-24T21:11:18.079Z,58.41
2022-09-24T21:13:51.688Z,57.89
2022-09-24T21:16:26.073Z,58.39
2022-09-24T21:18:56.129Z,58.36
2022-09-24T21:21:27.065Z,58.17
2022-09-24T21:23:57.106Z,58.40
2022-09-24T21:26:32.263Z,58.61
2022-09-24T21:29:18.029Z,58.77
2022-09-24T21:31:47.485Z,58.80
2022-09-24T21:34:19.679Z,58.94
2022-09-24T21:36:46.803Z,58.87
2022-09-24T21:39:16.264Z,59.18
2022-09-24T21:41:44.923Z,59.24
2022-09-24T21:44:14.886Z,59.20
2022-09-24T21:46:43.868Z,58.92
2022-09-24T21:49:11.838Z,59.05
2022-09-24T21:51:39.676Z,59.30
2022-09-24T21:54:08.612Z,59.31
2022-09-24T21:56:36.793Z,58.91
2022-09-24T21:59:24.380Z,59.36
2022-09-24T22:01:51.358Z,59.24
2022-09-24T22:04:18.368Z,59.51
2022-09-24T22:06:45.668Z,59.47
2022-09-24T22:09:13.083Z,59.64
2022-09-24T22:11:40.022Z,60.00
2022-09-24T22:14:07.105Z,60.12
2022-09-24T22:16:36.257Z,59.90
2022-09-24T22:19:06.020Z,59.92
2022-09-24T22:21:33.728Z,60.09
2022-09-24T22:24:01.015Z,60.21
2022-09-24T22:26:29.568Z,59.82
2022-09-24T22:28:57.017Z,59.95
2022-09-24T22:31:23.997Z,60.10
2022-09-24T22:34:09.374Z,59.97
2022-09-24T22:36:36.457Z,59.86
2022-09-24T22:39:05.146Z,60.21
2022-09-24T22:41:35.981Z,60.09
2022-09-24T22:44:03.200Z,60.44
2022-09-24T22:46:32.189Z,60.13
2022-09-24T22:48:59.381Z,60.08
2022-09-24T22:51:27.184Z,60.12
2022-09-24T22:53:54.968Z,60.09
2022-09-24T22:56:24.978Z,60.34
2022-09-24T22:58:57.661Z,60.02
2022-09-24T23:01:29.011Z,60.26
2022-09-24T23:03:57.144Z,60.29
2022-09-24T23:06:25.188Z,60.33
2022-09-24T23:08:54.273Z,60.15
2022-09-24T23:11:25.383Z,60.45
2022-09-24T23:13:59.869Z,60.55
2022-09-24T23:16:37.962Z,60.86
2022-09-24T23:19:11.258Z,60.30
2022-09-24T23:21:38.134Z,60.43
2022-09-24T23:24:28.313Z,60.83
2022-09-24T23:26:55.189Z,60.77
2022-09-24T23:29:22.049Z,61.26
2022-09-24T23:31:48.925Z,61.10
2022-09-24T23:34:15.783Z,61.11
2022-09-24T23:36:46.167Z,61.11
2022-09-24T23:39:13.561Z,61.36
2022-09-24T23:41:40.669Z,61.25
2022-09-24T23:44:07.599Z,61.23
2022-09-24T23:46:34.588Z,61.34
2022-09-24T23:49:01.535Z,61.55
2022-09-24T23:51:28.425Z,61.32
2022-09-24T23:53:55.315Z,61.46
2022-09-24T23:56:22.219Z,61.31
2022-09-24T23:58:49.387Z,61.15
